sensor_id;sensor_type;location;lat;lon;timestamp;temperature;humidity
80706;DHT22;70229;48.010;7.852;2024-03-17T00:01:48;10.60;99.90
80706;DHT22;70229;48.010;7.852;2024-03-17T00:25:32;10.50;99.90
80706;DHT22;70229;48.010;7.852;2024-03-17T01:00:16;10.50;99.90
80706;DHT22;70229;48.010;7.852;2024-03-17T01:09:58;10.50;99.90
80706;DHT22;70229;48.010;7.852;2024-03-17T01:27:05;10.50;99.90
80706;DHT22;70229;48.010;7.852;2024-03-17T01:37:23;10.50;99.90
80706;DHT22;70229;48.010;7.852;2024-03-17T01:43:57;10.50;99.90
80706;DHT22;70229;48.010;7.852;2024-03-17T02:03:55;10.30;99.90
80706;DHT22;70229;48.010;7.852;2024-03-17T03:50:48;9.10;99.90
80706;DHT22;70229;48.010;7.852;2024-03-17T04:04:29;8.90;99.90
80706;DHT22;70229;48.010;7.852;2024-03-17T04:07:35;8.80;99.90
80706;DHT22;70229;48.010;7.852;2024-03-17T04:28:12;8.60;99.90
80706;DHT22;70229;48.010;7.852;2024-03-17T04:31:08;8.50;99.90
80706;DHT22;70229;48.010;7.852;2024-03-17T04:34:31;8.50;99.90
80706;DHT22;70229;48.010;7.852;2024-03-17T18:23:31;12.10;99.90
80706;DHT22;70229;48.010;7.852;2024-03-17T18:25:57;12.00;99.90
80706;DHT22;70229;48.010;7.852;2024-03-17T18:28:24;12.00;99.90
80706;DHT22;70229;48.010;7.852;2024-03-17T18:30:53;12.00;99.90
80706;DHT22;70229;48.010;7.852;2024-03-17T18:33:21;11.90;99.90
80706;DHT22;70229;48.010;7.852;2024-03-17T18:35:52;13.20;99.90
80706;DHT22;70229;48.010;7.852;2024-03-17T18:38:19;12.40;99.90
80706;DHT22;70229;48.010;7.852;2024-03-17T18:40:45;12.60;99.90
80706;DHT22;70229;48.010;7.852;2024-03-17T18:43:11;12.00;99.90
80706;DHT22;70229;48.010;7.852;2024-03-17T18:45:37;12.60;99.90
80706;DHT22;70229;48.010;7.852;2024-03-17T18:48:03;11.90;99.90
80706;DHT22;70229;48.010;7.852;2024-03-17T18:50:29;11.90;99.90
80706;DHT22;70229;48.010;7.852;2024-03-17T18:52:55;12.00;99.90
80706;DHT22;70229;48.010;7.852;2024-03-17T18:55:21;12.00;99.90
80706;DHT22;70229;48.010;7.852;2024-03-17T18:57:48;13.20;99.90
80706;DHT22;70229;48.010;7.852;2024-03-17T19:00:14;11.90;99.90
80706;DHT22;70229;48.010;7.852;2024-03-17T19:02:51;11.80;99.90
80706;DHT22;70229;48.010;7.852;2024-03-17T19:05:17;11.80;99.90
80706;DHT22;70229;48.010;7.852;2024-03-17T19:07:43;11.90;99.90
80706;DHT22;70229;48.010;7.852;2024-03-17T19:10:11;11.80;99.90
80706;DHT22;70229;48.010;7.852;2024-03-17T19:12:46;11.80;99.90
80706;DHT22;70229;48.010;7.852;2024-03-17T19:15:13;11.90;99.90
80706;DHT22;70229;48.010;7.852;2024-03-17T19:17:38;12.30;99.90
80706;DHT22;70229;48.010;7.852;2024-03-17T19:20:05;12.70;99.90
80706;DHT22;70229;48.010;7.852;2024-03-17T19:22:39;11.90;99.90
80706;DHT22;70229;48.010;7.852;2024-03-17T19:25:05;12.50;99.90
80706;DHT22;70229;48.010;7.852;2024-03-17T19:27:40;11.90;99.90
80706;DHT22;70229;48.010;7.852;2024-03-17T19:30:06;11.90;99.90
80706;DHT22;70229;48.010;7.852;2024-03-17T19:32:33;11.90;99.90
80706;DHT22;70229;48.010;7.852;2024-03-17T19:35:00;11.90;99.90
80706;DHT22;70229;48.010;7.852;2024-03-17T19:37:26;11.90;99.90
80706;DHT22;70229;48.010;7.852;2024-03-17T19:39:51;12.70;99.90
80706;DHT22;70229;48.010;7.852;2024-03-17T19:42:17;12.00;99.90
80706;DHT22;70229;48.010;7.852;2024-03-17T19:44:46;11.90;99.90
80706;DHT22;70229;48.010;7.852;2024-03-17T19:47:12;13.20;99.90
80706;DHT22;70229;48.010;7.852;2024-03-17T19:49:38;12.80;99.90
80706;DHT22;70229;48.010;7.852;2024-03-17T19:52:03;12.00;99.90
80706;DHT22;70229;48.010;7.852;2024-03-17T19:54:30;11.90;99.90
80706;DHT22;70229;48.010;7.852;2024-03-17T19:56:55;11.90;99.90
80706;DHT22;70229;48.010;7.852;2024-03-17T19:59:21;11.90;99.90
80706;DHT22;70229;48.010;7.852;2024-03-17T20:01:46;11.90;99.90
80706;DHT22;70229;48.010;7.852;2024-03-17T20:04:12;11.80;99.90
80706;DHT22;70229;48.010;7.852;2024-03-17T20:06:38;11.80;99.90
80706;DHT22;70229;48.010;7.852;2024-03-17T20:09:03;11.80;99.90
80706;DHT22;70229;48.010;7.852;2024-03-17T20:11:29;11.70;99.90
80706;DHT22;70229;48.010;7.852;2024-03-17T20:13:55;13.40;99.90
80706;DHT22;70229;48.010;7.852;2024-03-17T20:16:23;11.60;99.90
80706;DHT22;70229;48.010;7.852;2024-03-17T20:18:56;11.60;99.90
80706;DHT22;70229;48.010;7.852;2024-03-17T20:21:22;11.60;99.90
80706;DHT22;70229;48.010;7.852;2024-03-17T20:23:49;11.60;99.90
80706;DHT22;70229;48.010;7.852;2024-03-17T20:26:16;11.80;99.90
80706;DHT22;70229;48.010;7.852;2024-03-17T20:28:45;11.50;99.90
80706;DHT22;70229;48.010;7.852;2024-03-17T20:31:19;12.60;99.90
80706;DHT22;70229;48.010;7.852;2024-03-17T20:33:48;11.50;99.90
80706;DHT22;70229;48.010;7.852;2024-03-17T20:36:16;11.50;99.90
80706;DHT22;70229;48.010;7.852;2024-03-17T20:38:45;11.50;99.90
80706;DHT22;70229;48.010;7.852;2024-03-17T20:41:11;11.60;99.90
80706;DHT22;70229;48.010;7.852;2024-03-17T20:43:38;11.50;99.90
80706;DHT22;70229;48.010;7.852;2024-03-17T20:46:04;11.60;99.90
80706;DHT22;70229;48.010;7.852;2024-03-17T20:48:34;12.70;99.90
80706;DHT22;70229;48.010;7.852;2024-03-17T20:51:00;11.50;99.90
80706;DHT22;70229;48.010;7.852;2024-03-17T20:53:26;12.40;99.90
80706;DHT22;70229;48.010;7.852;2024-03-17T20:55:52;12.10;99.90
80706;DHT22;70229;48.010;7.852;2024-03-17T20:58:18;11.50;99.90
80706;DHT22;70229;48.010;7.852;2024-03-17T21:00:44;11.40;99.90
80706;DHT22;70229;48.010;7.852;2024-03-17T21:03:16;11.60;99.90
80706;DHT22;70229;48.010;7.852;2024-03-17T21:05:43;11.50;99.90
80706;DHT22;70229;48.010;7.852;2024-03-17T21:08:08;12.80;99.90
80706;DHT22;70229;48.010;7.852;2024-03-17T21:10:34;11.80;99.90
80706;DHT22;70229;48.010;7.852;2024-03-17T21:13:01;11.50;99.90
80706;DHT22;70229;48.010;7.852;2024-03-17T21:15:26;13.00;99.90
80706;DHT22;70229;48.010;7.852;2024-03-17T21:17:52;12.50;99.90
80706;DHT22;70229;48.010;7.852;2024-03-17T21:20:18;11.10;99.90
80706;DHT22;70229;48.010;7.852;2024-03-17T21:22:45;11.40;99.90
80706;DHT22;70229;48.010;7.852;2024-03-17T21:25:12;11.60;99.90
80706;DHT22;70229;48.010;7.852;2024-03-17T21:27:39;11.40;99.90
80706;DHT22;70229;48.010;7.852;2024-03-17T21:30:15;11.80;99.90
80706;DHT22;70229;48.010;7.852;2024-03-17T21:32:41;11.40;99.90
80706;DHT22;70229;48.010;7.852;2024-03-17T21:35:08;11.40;99.90
80706;DHT22;70229;48.010;7.852;2024-03-17T21:37:33;11.40;99.90
80706;DHT22;70229;48.010;7.852;2024-03-17T21:40:03;12.00;99.90
80706;DHT22;70229;48.010;7.852;2024-03-17T21:42:34;11.40;99.90
80706;DHT22;70229;48.010;7.852;2024-03-17T21:45:00;11.30;99.90
80706;DHT22;70229;48.010;7.852;2024-03-17T21:47:27;11.30;99.90
80706;DHT22;70229;48.010;7.852;2024-03-17T21:49:53;12.00;99.90
80706;DHT22;70229;48.010;7.852;2024-03-17T21:52:18;11.30;99.90
80706;DHT22;70229;48.010;7.852;2024-03-17T21:54:44;11.20;99.90
80706;DHT22;70229;48.010;7.852;2024-03-17T21:57:13;11.30;99.90
80706;DHT22;70229;48.010;7.852;2024-03-17T21:59:39;11.30;99.90
80706;DHT22;70229;48.010;7.852;2024-03-17T22:02:05;11.90;99.90
80706;DHT22;70229;48.010;7.852;2024-03-17T22:04:30;11.20;99.90
80706;DHT22;70229;48.010;7.852;2024-03-17T22:06:57;12.20;99.90
80706;DHT22;70229;48.010;7.852;2024-03-17T22:09:23;12.60;99.90
80706;DHT22;70229;48.010;7.852;2024-03-17T22:11:50;12.10;99.90
80706;DHT22;70229;48.010;7.852;2024-03-17T22:14:17;11.50;99.90
80706;DHT22;70229;48.010;7.852;2024-03-17T22:16:42;11.30;99.90
80706;DHT22;70229;48.010;7.852;2024-03-17T22:19:08;11.30;99.90
80706;DHT22;70229;48.010;7.852;2024-03-17T22:21:34;11.10;99.90
80706;DHT22;70229;48.010;7.852;2024-03-17T22:23:59;11.90;99.90
80706;DHT22;70229;48.010;7.852;2024-03-17T22:26:26;12.30;99.90
80706;DHT22;70229;48.010;7.852;2024-03-17T22:28:52;12.10;99.90
80706;DHT22;70229;48.010;7.852;2024-03-17T22:31:18;11.40;99.90
80706;DHT22;70229;48.010;7.852;2024-03-17T22:33:43;11.80;99.90
80706;DHT22;70229;48.010;7.852;2024-03-17T22:36:09;11.80;99.90
80706;DHT22;70229;48.010;7.852;2024-03-17T22:38:36;11.90;99.90
80706;DHT22;70229;48.010;7.852;2024-03-17T22:41:06;11.70;99.90
80706;DHT22;70229;48.010;7.852;2024-03-17T22:43:36;11.10;99.90
80706;DHT22;70229;48.010;7.852;2024-03-17T22:46:04;11.10;99.90
80706;DHT22;70229;48.010;7.852;2024-03-17T22:48:30;12.10;99.90
80706;DHT22;70229;48.010;7.852;2024-03-17T22:50:57;12.00;99.90
80706;DHT22;70229;48.010;7.852;2024-03-17T22:53:24;11.70;99.90
80706;DHT22;70229;48.010;7.852;2024-03-17T22:55:51;11.00;99.90
80706;DHT22;70229;48.010;7.852;2024-03-17T22:58:18;11.40;99.90
80706;DHT22;70229;48.010;7.852;2024-03-17T23:00:45;11.10;99.90
80706;DHT22;70229;48.010;7.852;2024-03-17T23:03:20;11.00;99.90
80706;DHT22;70229;48.010;7.852;2024-03-17T23:05:50;11.00;99.90
80706;DHT22;70229;48.010;7.852;2024-03-17T23:08:17;11.00;99.90
80706;DHT22;70229;48.010;7.852;2024-03-17T23:10:43;12.40;99.90
80706;DHT22;70229;48.010;7.852;2024-03-17T23:13:13;11.20;99.90
80706;DHT22;70229;48.010;7.852;2024-03-17T23:15:40;11.10;99.90
80706;DHT22;70229;48.010;7.852;2024-03-17T23:18:06;11.00;99.90
80706;DHT22;70229;48.010;7.852;2024-03-17T23:20:33;11.00;99.90
80706;DHT22;70229;48.010;7.852;2024-03-17T23:22:59;11.00;99.90
80706;DHT22;70229;48.010;7.852;2024-03-17T23:25:36;11.00;99.90
80706;DHT22;70229;48.010;7.852;2024-03-17T23:28:06;11.00;99.90
80706;DHT22;70229;48.010;7.852;2024-03-17T23:30:33;11.10;99.90
80706;DHT22;70229;48.010;7.852;2024-03-17T23:32:59;11.00;99.90
80706;DHT22;70229;48.010;7.852;2024-03-17T23:35:25;11.50;99.90
80706;DHT22;70229;48.010;7.852;2024-03-17T23:37:52;11.30;99.90
80706;DHT22;70229;48.010;7.852;2024-03-17T23:40:17;11.30;99.90
80706;DHT22;70229;48.010;7.852;2024-03-17T23:42:44;10.90;99.90
80706;DHT22;70229;48.010;7.852;2024-03-17T23:45:10;10.90;99.90
80706;DHT22;70229;48.010;7.852;2024-03-17T23:47:36;11.10;99.90
80706;DHT22;70229;48.010;7.852;2024-03-17T23:50:03;11.70;99.90
80706;DHT22;70229;48.010;7.852;2024-03-17T23:52:32;11.00;99.90
80706;DHT22;70229;48.010;7.852;2024-03-17T23:54:58;11.10;99.90
80706;DHT22;70229;48.010;7.852;2024-03-17T23:57:28;10.90;99.90
80706;DHT22;70229;48.010;7.852;2024-03-17T23:59:54;11.60;99.90
